sensor_id;sensor_type;location;lat;lon;timestamp;pressure;altitude;pressure_sealevel;temperature;humidity
71903;BME280;59778;50.310;18.780;2022-12-11T00:05:00;97714.31;;;0.54;100.00
71903;BME280;59778;50.310;18.780;2022-12-11T00:20:21;97674.09;;;0.55;100.00
71903;BME280;59778;50.310;18.780;2022-12-11T00:35:46;97675.22;;;0.53;100.00
71903;BME280;59778;50.310;18.780;2022-12-11T00:51:09;97680.75;;;0.51;100.00
71903;BME280;59778;50.310;18.780;2022-12-11T01:06:30;97682.88;;;0.39;100.00
71903;BME280;59778;50.310;18.780;2022-12-11T01:21:51;97664.88;;;0.50;100.00
71903;BME280;59778;50.310;18.780;2022-12-11T01:37:13;97650.81;;;0.39;100.00
71903;BME280;59778;50.310;18.780;2022-12-11T01:52:34;97658.78;;;0.31;100.00
71903;BME280;59778;50.310;18.780;2022-12-11T02:07:58;97659.78;;;0.30;100.00
71903;BME280;59778;50.310;18.780;2022-12-11T02:23:51;97651.03;;;0.20;100.00
71903;BME280;59778;50.310;18.780;2022-12-11T02:39:15;97647.53;;;0.20;100.00
71903;BME280;59778;50.310;18.780;2022-12-11T02:54:38;97627.13;;;0.11;100.00
71903;BME280;59778;50.310;18.780;2022-12-11T03:10:02;97621.75;;;0.03;100.00
71903;BME280;59778;50.310;18.780;2022-12-11T03:25:34;97637.47;;;0.14;100.00
71903;BME280;59778;50.310;18.780;2022-12-11T03:41:00;97625.31;;;0.11;100.00
71903;BME280;59778;50.310;18.780;2022-12-11T03:56:24;97618.69;;;-0.03;100.00
71903;BME280;59778;50.310;18.780;2022-12-11T04:11:47;97604.00;;;-0.07;100.00
71903;BME280;59778;50.310;18.780;2022-12-11T04:27:08;97599.78;;;-0.17;100.00
71903;BME280;59778;50.310;18.780;2022-12-11T04:42:29;97593.59;;;-0.18;100.00
71903;BME280;59778;50.310;18.780;2022-12-11T04:57:51;97588.41;;;-0.19;100.00
71903;BME280;59778;50.310;18.780;2022-12-11T05:13:12;97588.22;;;-0.26;100.00
71903;BME280;59778;50.310;18.780;2022-12-11T05:28:35;97580.09;;;-0.42;100.00
71903;BME280;59778;50.310;18.780;2022-12-11T05:43:57;97585.81;;;-0.55;100.00
71903;BME280;59778;50.310;18.780;2022-12-11T05:59:18;97587.13;;;-0.59;100.00
71903;BME280;59778;50.310;18.780;2022-12-11T06:14:40;97601.09;;;-0.65;100.00
71903;BME280;59778;50.310;18.780;2022-12-11T06:30:01;97600.31;;;-0.75;100.00
71903;BME280;59778;50.310;18.780;2022-12-11T06:45:22;97608.63;;;-0.78;100.00
71903;BME280;59778;50.310;18.780;2022-12-11T07:00:44;97612.06;;;-0.85;100.00
71903;BME280;59778;50.310;18.780;2022-12-11T07:16:05;97615.44;;;-0.83;100.00
71903;BME280;59778;50.310;18.780;2022-12-11T07:31:30;97616.72;;;-0.87;100.00
71903;BME280;59778;50.310;18.780;2022-12-11T07:46:52;97642.13;;;-0.93;100.00
71903;BME280;59778;50.310;18.780;2022-12-11T08:02:13;97635.50;;;-0.89;100.00
71903;BME280;59778;50.310;18.780;2022-12-11T08:17:34;97632.91;;;-0.99;98.99
71903;BME280;59778;50.310;18.780;2022-12-11T08:32:55;97637.25;;;-0.98;98.31
71903;BME280;59778;50.310;18.780;2022-12-11T08:48:17;97648.63;;;-0.96;99.56
71903;BME280;59778;50.310;18.780;2022-12-11T09:03:38;97644.66;;;-0.91;100.00
71903;BME280;59778;50.310;18.780;2022-12-11T09:19:00;97634.97;;;-0.92;97.74
71903;BME280;59778;50.310;18.780;2022-12-11T09:34:21;97636.34;;;-0.88;95.63
71903;BME280;59778;50.310;18.780;2022-12-11T09:49:43;97625.47;;;-0.77;96.01
71903;BME280;59778;50.310;18.780;2022-12-11T10:05:27;97614.34;;;-0.90;96.91
71903;BME280;59778;50.310;18.780;2022-12-11T10:20:51;97619.38;;;-1.05;97.17
71903;BME280;59778;50.310;18.780;2022-12-11T10:36:18;97606.81;;;-1.13;94.75
71903;BME280;59778;50.310;18.780;2022-12-11T10:51:41;97592.66;;;-1.31;94.43
71903;BME280;59778;50.310;18.780;2022-12-11T11:07:12;97580.84;;;-1.28;93.78
71903;BME280;59778;50.310;18.780;2022-12-11T11:22:41;97566.28;;;-1.52;93.20
71903;BME280;59778;50.310;18.780;2022-12-11T11:38:18;97561.19;;;-1.45;91.35
71903;BME280;59778;50.310;18.780;2022-12-11T11:53:40;97564.38;;;-1.42;91.92
71903;BME280;59778;50.310;18.780;2022-12-11T12:24:59;97557.00;;;-1.30;94.50
71903;BME280;59778;50.310;18.780;2022-12-11T12:40:55;97549.28;;;-1.23;96.44
71903;BME280;59778;50.310;18.780;2022-12-11T12:56:18;97561.94;;;-1.53;96.83
71903;BME280;59778;50.310;18.780;2022-12-11T13:11:40;97574.91;;;-1.40;96.69
71903;BME280;59778;50.310;18.780;2022-12-11T13:27:10;97588.81;;;-1.73;96.58
71903;BME280;59778;50.310;18.780;2022-12-11T13:43:00;97593.22;;;-1.82;97.52
71903;BME280;59778;50.310;18.780;2022-12-11T13:58:23;97608.97;;;-1.98;95.69
71903;BME280;59778;50.310;18.780;2022-12-11T14:13:45;97622.41;;;-2.09;95.81
71903;BME280;59778;50.310;18.780;2022-12-11T14:29:21;97631.34;;;-2.01;97.29
71903;BME280;59778;50.310;18.780;2022-12-11T14:44:53;97616.31;;;-2.19;97.60
71903;BME280;59778;50.310;18.780;2022-12-11T15:00:28;97615.50;;;-2.29;99.04
71903;BME280;59778;50.310;18.780;2022-12-11T15:15:51;97616.91;;;-2.35;98.96
71903;BME280;59778;50.310;18.780;2022-12-11T15:31:27;97629.19;;;-2.24;97.88
71903;BME280;59778;50.310;18.780;2022-12-11T15:46:49;97629.59;;;-2.29;97.80
71903;BME280;59778;50.310;18.780;2022-12-11T16:02:11;97639.13;;;-2.36;96.97
71903;BME280;59778;50.310;18.780;2022-12-11T16:17:32;97650.19;;;-2.41;97.06
71903;BME280;59778;50.310;18.780;2022-12-11T16:32:54;97646.44;;;-2.48;97.58
71903;BME280;59778;50.310;18.780;2022-12-11T16:48:15;97656.94;;;-2.56;96.72
71903;BME280;59778;50.310;18.780;2022-12-11T17:03:37;97670.50;;;-2.59;99.41
71903;BME280;59778;50.310;18.780;2022-12-11T17:18:59;97669.69;;;-2.69;99.05
71903;BME280;59778;50.310;18.780;2022-12-11T17:34:20;97674.28;;;-2.52;98.42
71903;BME280;59778;50.310;18.780;2022-12-11T17:49:42;97676.25;;;-2.54;97.94
71903;BME280;59778;50.310;18.780;2022-12-11T18:05:03;97678.47;;;-2.88;98.72
71903;BME280;59778;50.310;18.780;2022-12-11T18:20:25;97670.34;;;-2.76;97.85
71903;BME280;59778;50.310;18.780;2022-12-11T18:35:48;97661.28;;;-2.93;97.57
71903;BME280;59778;50.310;18.780;2022-12-11T18:51:13;97671.34;;;-2.77;96.94
71903;BME280;59778;50.310;18.780;2022-12-11T19:06:35;97672.44;;;-2.80;97.46
71903;BME280;59778;50.310;18.780;2022-12-11T19:21:56;97672.75;;;-2.73;97.27
71903;BME280;59778;50.310;18.780;2022-12-11T19:37:18;97672.03;;;-2.75;97.32
71903;BME280;59778;50.310;18.780;2022-12-11T19:52:39;97663.50;;;-2.60;97.66
71903;BME280;59778;50.310;18.780;2022-12-11T20:08:00;97671.06;;;-2.84;97.58
71903;BME280;59778;50.310;18.780;2022-12-11T20:23:22;97677.63;;;-2.78;97.65
71903;BME280;59778;50.310;18.780;2022-12-11T20:38:43;97678.75;;;-2.91;97.22
71903;BME280;59778;50.310;18.780;2022-12-11T20:54:05;97668.78;;;-3.17;96.76
71903;BME280;59778;50.310;18.780;2022-12-11T21:09:26;97669.91;;;-3.10;97.61
71903;BME280;59778;50.310;18.780;2022-12-11T21:24:47;97676.06;;;-3.00;98.22
71903;BME280;59778;50.310;18.780;2022-12-11T21:40:09;97675.25;;;-3.01;98.57
71903;BME280;59778;50.310;18.780;2022-12-11T21:55:30;97678.88;;;-3.02;97.40
71903;BME280;59778;50.310;18.780;2022-12-11T22:10:52;97662.78;;;-3.00;98.64
71903;BME280;59778;50.310;18.780;2022-12-11T22:26:19;97673.72;;;-2.94;99.58
71903;BME280;59778;50.310;18.780;2022-12-11T22:41:41;97668.56;;;-2.86;99.02
71903;BME280;59778;50.310;18.780;2022-12-11T22:57:03;97662.13;;;-2.83;98.37
71903;BME280;59778;50.310;18.780;2022-12-11T23:12:24;97649.69;;;-2.82;97.61
71903;BME280;59778;50.310;18.780;2022-12-11T23:27:45;97647.56;;;-2.79;97.44
71903;BME280;59778;50.310;18.780;2022-12-11T23:43:07;97634.44;;;-2.61;97.11
71903;BME280;59778;50.310;18.780;2022-12-11T23:58:28;97635.56;;;-2.83;98.53
